Time;durP1;ratioP1;P1;durP2;ratioP2;P2;SDS_P1;SDS_P2;PMS_P1;PMS_P2;Temp;Humidity;BMP_temperature;BMP_pressure;BME280_temperature;BME280_humidity;BME280_pressure;Samples;Min_cycle;Max_cycle;Signal;HPM_P1;HPM_P2
2022/07/18 00:02:00;;;;;;;7.88;1.40;;;21.40;99.90;;;;;;5027582;28;20211;-84
2022/07/18 00:04:26;;;;;;;2.25;1.48;;;21.40;99.90;;;;;;5042442;28;20159;-83
2022/07/18 00:06:53;;;;;;;2.38;1.60;;;21.40;99.90;;;;;;5060859;28;20171;-83
2022/07/18 00:09:19;;;;;;;6.13;1.30;;;21.50;99.90;;;;;;5065979;28;20159;-81
2022/07/18 00:11:45;;;;;;;6.32;1.80;;;21.40;99.90;;;;;;5059400;28;20218;-81
2022/07/18 00:14:11;;;;;;;7.72;1.42;;;21.20;99.90;;;;;;5080745;28;20187;-82
2022/07/18 00:16:37;;;;;;;1.95;1.35;;;21.30;99.90;;;;;;5046354;28;20282;-85
2022/07/18 00:19:04;;;;;;;3.40;1.45;;;21.30;99.90;;;;;;5055594;28;20225;-84
2022/07/18 00:21:29;;;;;;;8.18;1.50;;;21.30;99.90;;;;;;5055581;28;20285;-83
2022/07/18 00:23:55;;;;;;;6.85;1.85;;;21.10;99.90;;;;;;5037798;28;20554;-85
2022/07/18 00:26:21;;;;;;;2.00;1.45;;;21.20;99.90;;;;;;5037649;28;20199;-82
2022/07/18 00:28:46;;;;;;;6.95;1.70;;;21.20;99.90;;;;;;5055469;28;20163;-83
2022/07/18 00:31:12;;;;;;;1.65;1.50;;;21.10;99.90;;;;;;5055274;28;20253;-81
2022/07/18 00:33:38;;;;;;;1.95;1.23;;;21.10;99.90;;;;;;5055042;28;20174;-85
2022/07/18 00:36:03;;;;;;;3.42;1.50;;;21.10;99.90;;;;;;5055694;28;20228;-83
2022/07/18 00:38:29;;;;;;;5.88;1.50;;;21.00;99.90;;;;;;5037145;28;20624;-84
2022/07/18 00:40:56;;;;;;;1.67;1.30;;;21.10;99.90;;;;;;5054897;28;20203;-84
2022/07/18 00:43:21;;;;;;;5.85;1.95;;;21.10;99.90;;;;;;5054956;28;20699;-84
2022/07/18 00:45:49;;;;;;;2.53;1.52;;;20.90;99.90;;;;;;5055102;28;20262;-82
2022/07/18 00:48:15;;;;;;;4.57;1.80;;;20.90;99.90;;;;;;5037252;28;20167;-82
2022/07/18 00:50:42;;;;;;;3.45;1.48;;;21.10;99.90;;;;;;5037096;28;20198;-84
2022/07/18 00:53:10;;;;;;;5.05;2.10;;;21.10;99.90;;;;;;5055099;28;20160;-85
2022/07/18 00:55:38;;;;;;;4.55;1.70;;;21.10;99.90;;;;;;5036654;28;20167;-84
2022/07/18 00:58:03;;;;;;;5.43;1.60;;;21.00;99.90;;;;;;5054261;28;20168;-85
2022/07/18 01:03:14;;;;;;;4.35;2.22;;;20.80;99.90;;;;;;5054769;28;20274;-83
2022/07/18 01:05:39;;;;;;;9.13;1.70;;;20.90;99.90;;;;;;5036752;28;20199;-84
2022/07/18 01:08:05;;;;;;;3.25;1.63;;;20.80;99.90;;;;;;5054197;28;20640;-83
2022/07/18 01:10:31;;;;;;;7.90;1.90;;;20.80;99.90;;;;;;5054259;28;20206;-83
2022/07/18 01:12:56;;;;;;;6.25;1.40;;;20.80;99.90;;;;;;5036685;28;20211;-84
2022/07/18 01:15:23;;;;;;;2.20;1.48;;;20.70;99.90;;;;;;5056475;28;20177;-82
2022/07/18 01:17:49;;;;;;;2.40;1.55;;;20.60;99.90;;;;;;5057514;28;20182;-83
2022/07/18 01:20:15;;;;;;;5.65;1.67;;;20.70;99.90;;;;;;5038604;28;20191;-85
2022/07/18 01:22:41;;;;;;;2.90;1.67;;;20.40;99.90;;;;;;5056108;28;20171;-82
2022/07/18 01:25:08;;;;;;;2.35;1.42;;;20.30;99.90;;;;;;5042747;28;20174;-83
2022/07/18 01:27:35;;;;;;;3.80;1.33;;;20.40;99.90;;;;;;5058109;28;20171;-84
2022/07/18 01:30:01;;;;;;;5.47;1.95;;;20.40;99.90;;;;;;5056556;28;20190;-85
2022/07/18 01:32:27;;;;;;;2.47;1.35;;;20.50;99.90;;;;;;5057241;28;20175;-83
2022/07/18 01:34:53;;;;;;;1.83;1.42;;;20.50;99.90;;;;;;5021388;28;20179;-83
2022/07/18 01:37:19;;;;;;;1.77;1.55;;;20.40;99.90;;;;;;5040125;28;20198;-84
2022/07/18 01:39:46;;;;;;;6.38;1.90;;;20.30;99.90;;;;;;5058304;28;20723;-84
2022/07/18 01:42:13;;;;;;;2.20;1.67;;;20.30;99.90;;;;;;5054972;28;20205;-83
2022/07/18 01:44:39;;;;;;;5.05;1.73;;;20.40;99.90;;;;;;5058962;28;20761;-83
2022/07/18 01:47:07;;;;;;;6.57;2.80;;;20.40;99.90;;;;;;5039477;28;20171;-85
2022/07/18 01:49:38;;;;;;;3.55;1.77;;;20.30;99.90;;;;;;5058462;28;20486;-84
2022/07/18 01:52:06;;;;;;;7.25;1.33;;;20.30;99.90;;;;;;5062666;28;20167;-82
2022/07/18 01:54:33;;;;;;;6.07;1.50;;;20.30;99.90;;;;;;5062675;28;20167;-82
2022/07/18 01:57:01;;;;;;;1.90;1.20;;;20.30;99.90;;;;;;5046257;28;20183;-82
2022/07/18 01:59:27;;;;;;;4.82;1.60;;;20.30;99.90;;;;;;5063753;28;20162;-83
2022/07/18 02:01:55;;;;;;;6.53;1.70;;;20.20;99.90;;;;;;5042302;28;20207;-83
2022/07/18 02:04:59;;;;;;;1.58;1.48;;;19.90;99.90;;;;;;5058578;28;20686;-84
2022/07/18 02:07:07;;;;;;;2.50;1.55;;;20.00;99.90;;;;;;5056422;28;20186;-82
2022/07/18 02:09:33;;;;;;;2.08;1.48;;;20.00;99.90;;;;;;5064340;28;20183;-82
2022/07/18 02:11:59;;;;;;;4.82;1.52;;;20.10;99.90;;;;;;5041924;28;20247;-82
2022/07/18 02:14:24;;;;;;;5.10;1.60;;;20.10;99.90;;;;;;5046024;28;20202;-81
2022/07/18 02:16:53;;;;;;;4.53;1.40;;;20.10;99.90;;;;;;5065449;28;20179;-82
2022/07/18 02:19:19;;;;;;;3.88;1.30;;;20.20;99.90;;;;;;5031389;28;20191;-82
2022/07/18 02:21:45;;;;;;;4.03;1.52;;;20.10;99.90;;;;;;5057068;28;20207;-82
2022/07/18 02:24:11;;;;;;;5.68;1.40;;;20.20;99.90;;;;;;5047432;28;20198;-84
2022/07/18 02:26:36;;;;;;;4.97;1.50;;;20.10;99.90;;;;;;5057150;28;20163;-86
2022/07/18 02:29:02;;;;;;;6.05;1.27;;;20.00;99.90;;;;;;5040081;28;20167;-86
2022/07/18 02:31:28;;;;;;;2.60;1.25;;;19.80;99.90;;;;;;5039169;28;20201;-84
2022/07/18 02:33:53;;;;;;;2.75;1.38;;;19.70;99.90;;;;;;5056203;28;20310;-82
2022/07/18 02:36:19;;;;;;;6.63;1.70;;;19.80;99.90;;;;;;5040040;28;20213;-81
2022/07/18 02:38:45;;;;;;;2.88;1.50;;;19.90;99.90;;;;;;5057587;28;20472;-86
2022/07/18 02:41:10;;;;;;;4.55;1.58;;;20.00;99.90;;;;;;5060379;28;20194;-80
2022/07/18 02:43:36;;;;;;;4.63;1.90;;;20.10;99.90;;;;;;5058193;28;20217;-81
2022/07/18 02:46:02;;;;;;;2.55;1.15;;;20.10;99.90;;;;;;5077462;28;20155;-82
2022/07/18 02:48:28;;;;;;;6.70;1.38;;;20.00;99.90;;;;;;5051882;28;20730;-81
2022/07/18 02:50:54;;;;;;;2.08;1.30;;;19.90;99.90;;;;;;5059953;28;20210;-85
2022/07/18 02:53:23;;;;;;;5.13;1.63;;;19.90;99.90;;;;;;5061420;28;20226;-82
2022/07/18 02:55:51;;;;;;;12.20;1.45;;;19.70;99.90;;;;;;5061088;28;20170;-82
2022/07/18 02:58:17;;;;;;;1.77;1.10;;;19.60;99.90;;;;;;5043217;28;20166;-83
2022/07/18 03:00:42;;;;;;;9.13;1.60;;;19.50;99.90;;;;;;5043085;28;20222;-82
2022/07/18 03:03:08;;;;;;;3.15;1.50;;;19.50;99.90;;;;;;5058533;28;20171;-85
2022/07/18 03:05:33;;;;;;;9.07;1.50;;;19.70;99.90;;;;;;5058081;28;20174;-82
2022/07/18 03:07:59;;;;;;;2.65;1.52;;;19.60;99.90;;;;;;5060071;28;20528;-82
2022/07/18 03:10:25;;;;;;;7.75;1.83;;;19.60;99.90;;;;;;5040134;28;20566;-82
2022/07/18 03:12:50;;;;;;;3.42;2.13;;;19.60;99.90;;;;;;5059121;28;20598;-82
2022/07/18 03:15:16;;;;;;;19.13;2.08;;;19.30;99.90;;;;;;5041249;28;20315;-81
2022/07/18 03:17:42;;;;;;;8.32;2.03;;;19.40;99.90;;;;;;5073715;28;20151;-82
2022/07/18 03:20:08;;;;;;;2.50;1.75;;;19.50;99.90;;;;;;5075693;28;20195;-85
2022/07/18 03:22:33;;;;;;;3.03;1.77;;;19.60;99.90;;;;;;5060039;28;20191;-82
2022/07/18 03:24:59;;;;;;;5.55;1.35;;;19.60;99.90;;;;;;5061860;28;20171;-82
2022/07/18 03:27:25;;;;;;;7.38;1.48;;;19.70;99.90;;;;;;5056167;28;20194;-83
2022/07/18 03:29:50;;;;;;;3.30;1.80;;;19.60;99.90;;;;;;5058656;28;20199;-81
2022/07/18 03:32:16;;;;;;;2.58;1.90;;;19.60;99.90;;;;;;5074376;28;20246;-83
2022/07/18 03:34:42;;;;;;;5.72;1.65;;;19.50;99.90;;;;;;5063018;28;20164;-84
2022/07/18 03:37:08;;;;;;;5.63;1.60;;;19.60;99.90;;;;;;5058869;28;20202;-84
2022/07/18 03:39:34;;;;;;;9.13;1.88;;;19.50;99.90;;;;;;5056502;28;20219;-83
2022/07/18 03:41:59;;;;;;;2.28;1.63;;;19.60;99.90;;;;;;5038683;28;20213;-85
2022/07/18 03:44:25;;;;;;;7.03;1.75;;;19.60;99.90;;;;;;5056079;28;20254;-83
2022/07/18 03:46:52;;;;;;;7.00;1.75;;;19.60;99.90;;;;;;5055958;28;20167;-82
2022/07/18 03:49:17;;;;;;;2.78;1.80;;;19.60;99.90;;;;;;5037839;28;20163;-84
2022/07/18 03:51:43;;;;;;;5.00;1.65;;;19.50;99.90;;;;;;5056134;28;20178;-83
2022/07/18 03:54:09;;;;;;;2.97;1.50;;;19.50;99.90;;;;;;5055804;28;20213;-84
2022/07/18 03:56:36;;;;;;;5.70;1.50;;;19.50;99.90;;;;;;5055774;28;20198;-85
2022/07/18 03:59:02;;;;;;;6.72;2.35;;;19.40;99.90;;;;;;5055903;28;20171;-85
2022/07/18 04:01:28;;;;;;;9.65;2.00;;;19.40;99.90;;;;;;5055456;28;20328;-83
2022/07/18 04:03:53;;;;;;;3.83;1.88;;;19.40;99.90;;;;;;5037788;28;20544;-84
2022/07/18 04:06:19;;;;;;;4.20;1.55;;;19.20;99.90;;;;;;5055722;28;20248;-83
2022/07/18 04:08:45;;;;;;;8.15;1.67;;;19.30;99.90;;;;;;5037822;28;20168;-82
2022/07/18 04:11:14;;;;;;;4.03;1.90;;;19.40;99.90;;;;;;5038129;28;20317;-80
2022/07/18 04:13:39;;;;;;;5.93;1.70;;;19.40;99.90;;;;;;5040452;28;20174;-83
2022/07/18 04:16:05;;;;;;;3.75;2.17;;;19.50;99.90;;;;;;5057310;28;20167;-83
2022/07/18 04:18:31;;;;;;;4.60;2.33;;;19.40;99.90;;;;;;5057309;28;20167;-82
2022/07/18 04:20:56;;;;;;;17.65;2.20;;;19.60;99.90;;;;;;5056494;28;20203;-83
2022/07/18 04:23:22;;;;;;;8.30;2.28;;;19.70;99.90;;;;;;5057269;28;20182;-82
2022/07/18 04:25:48;;;;;;;7.80;1.85;;;19.80;99.90;;;;;;5039682;28;20175;-83
2022/07/18 04:28:14;;;;;;;5.18;1.83;;;19.90;99.90;;;;;;5057208;28;20168;-83
2022/07/18 04:30:42;;;;;;;10.25;2.70;;;20.10;99.90;;;;;;5056575;28;20190;-81
2022/07/18 04:33:10;;;;;;;3.45;2.40;;;20.00;99.90;;;;;;5038404;28;20178;-83
2022/07/18 04:35:36;;;;;;;5.55;2.20;;;19.90;99.90;;;;;;5057873;28;20189;-82
2022/07/18 04:38:03;;;;;;;6.47;2.13;;;19.90;99.90;;;;;;5056840;28;20163;-85
2022/07/18 04:40:29;;;;;;;3.47;1.65;;;20.00;99.90;;;;;;5039567;28;20592;-82
2022/07/18 04:42:55;;;;;;;10.77;2.15;;;20.00;99.90;;;;;;5056806;28;20221;-83
2022/07/18 04:45:23;;;;;;;4.40;2.53;;;20.00;99.90;;;;;;5056545;28;20174;-82
2022/07/18 04:47:51;;;;;;;11.95;2.08;;;20.20;99.90;;;;;;5057414;28;20241;-84
2022/07/18 04:50:18;;;;;;;5.70;1.98;;;20.40;99.90;;;;;;5056957;28;20647;-84
2022/07/18 04:52:45;;;;;;;14.68;2.75;;;20.40;99.90;;;;;;5039431;28;20258;-83
2022/07/18 04:55:13;;;;;;;11.50;2.45;;;20.40;99.90;;;;;;5058039;28;20186;-84
2022/07/18 04:57:40;;;;;;;6.10;2.17;;;20.60;99.90;;;;;;5058532;28;20167;-83
2022/07/18 05:00:10;;;;;;;6.38;1.95;;;20.60;99.90;;;;;;5056669;28;20624;-82
2022/07/18 05:02:41;;;;;;;7.57;2.50;;;20.70;99.90;;;;;;5043396;28;20296;-82
2022/07/18 05:05:09;;;;;;;3.65;2.03;;;20.80;99.90;;;;;;5063211;28;20547;-83
2022/07/18 05:07:35;;;;;;;9.38;2.10;;;21.00;99.90;;;;;;5039647;28;20174;-84
2022/07/18 05:10:03;;;;;;;5.82;2.35;;;20.90;99.90;;;;;;5040069;28;20227;-84
2022/07/18 05:12:31;;;;;;;11.32;1.90;;;20.70;99.90;;;;;;5069775;28;20181;-81
2022/07/18 05:14:56;;;;;;;7.22;2.10;;;20.80;99.90;;;;;;5076812;28;20183;-80
2022/07/18 05:17:22;;;;;;;2.30;1.60;;;21.00;99.90;;;;;;5078819;28;20223;-82
2022/07/18 05:19:59;;;;;;;15.13;2.30;;;21.10;99.90;;;;;;5062035;28;20213;-81
2022/07/18 05:22:25;;;;;;;3.58;1.63;;;21.20;99.90;;;;;;5060971;28;20207;-83
2022/07/18 05:24:52;;;;;;;8.57;2.30;;;21.30;99.90;;;;;;5060349;28;20682;-83
2022/07/18 05:27:18;;;;;;;3.58;1.90;;;21.40;99.90;;;;;;5057202;28;20171;-83
2022/07/18 05:29:44;;;;;;;11.60;2.33;;;21.40;99.90;;;;;;5057037;28;20194;-84
2022/07/18 05:32:11;;;;;;;6.88;2.22;;;21.60;99.90;;;;;;5039549;28;20191;-83
2022/07/18 05:34:36;;;;;;;13.63;2.30;;;21.80;99.90;;;;;;5039141;28;20163;-84
2022/07/18 05:37:02;;;;;;;12.07;2.55;;;21.90;99.90;;;;;;5039049;28;20520;-83
2022/07/18 05:39:28;;;;;;;5.03;2.80;;;22.20;99.90;;;;;;5056624;28;20198;-85
2022/07/18 05:41:53;;;;;;;9.05;2.20;;;22.30;99.90;;;;;;5058809;28;20260;-83
2022/07/18 05:44:20;;;;;;;4.40;2.15;;;22.50;99.90;;;;;;5057752;28;20172;-84
2022/07/18 05:46:46;;;;;;;12.45;3.05;;;22.50;99.90;;;;;;5058094;28;20165;-83
2022/07/18 05:49:13;;;;;;;4.28;2.38;;;22.50;99.90;;;;;;5038752;28;20677;-83
2022/07/18 05:51:38;;;;;;;20.70;3.20;;;22.50;99.90;;;;;;5055953;28;20175;-83
2022/07/18 05:54:04;;;;;;;3.47;2.80;;;22.80;99.90;;;;;;5037921;28;20194;-82
2022/07/18 05:56:31;;;;;;;13.15;2.05;;;22.90;99.90;;;;;;5038905;28;20206;-81
2022/07/18 05:58:57;;;;;;;5.00;2.15;;;22.90;99.90;;;;;;5039677;28;20194;-83
2022/07/18 06:01:25;;;;;;;3.45;1.73;;;23.00;99.90;;;;;;5058114;28;20202;-83
2022/07/18 06:03:50;;;;;;;5.90;2.08;;;23.10;99.90;;;;;;5038159;28;20174;-84
2022/07/18 06:06:18;;;;;;;11.57;2.22;;;23.10;99.90;;;;;;5058574;28;20167;-83
2022/07/18 06:08:44;;;;;;;5.93;1.90;;;23.30;99.90;;;;;;5057486;28;20189;-84
2022/07/18 06:11:11;;;;;;;8.38;2.22;;;23.30;99.90;;;;;;5053225;28;20202;-82
2022/07/18 06:13:38;;;;;;;5.30;1.83;;;23.40;99.90;;;;;;5035318;28;20171;-83
2022/07/18 06:16:05;;;;;;;4.40;2.00;;;23.50;99.90;;;;;;5053187;28;20237;-83
2022/07/18 06:18:31;;;;;;;9.18;1.65;;;23.60;99.90;;;;;;5035124;28;20247;-83
2022/07/18 06:20:57;;;;;;;10.75;2.35;;;23.70;99.90;;;;;;5052950;28;20722;-85
2022/07/18 06:23:23;;;;;;;5.57;2.10;;;23.80;99.90;;;;;;5035604;28;20166;-84
2022/07/18 06:25:48;;;;;;;8.52;2.03;;;23.90;99.90;;;;;;5053033;28;20171;-83
2022/07/18 06:28:14;;;;;;;13.73;2.30;;;23.90;99.90;;;;;;5052962;28;20623;-84
2022/07/18 06:30:40;;;;;;;11.05;3.08;;;24.10;99.90;;;;;;5052684;28;20577;-84
2022/07/18 06:33:07;;;;;;;7.72;1.98;;;24.10;99.90;;;;;;5052986;28;20196;-83
2022/07/18 06:35:33;;;;;;;4.20;1.98;;;24.10;99.90;;;;;;5035393;28;20171;-84
2022/07/18 06:37:59;;;;;;;9.73;2.00;;;24.30;99.90;;;;;;5034778;28;20174;-84
2022/07/18 06:40:25;;;;;;;6.93;1.77;;;24.50;99.90;;;;;;5052890;28;20202;-82
2022/07/18 06:42:51;;;;;;;7.47;2.05;;;24.50;99.90;;;;;;5053026;28;20635;-83
2022/07/18 06:45:17;;;;;;;9.15;1.88;;;24.40;99.90;;;;;;5035069;28;20178;-83
2022/07/18 06:47:43;;;;;;;6.85;1.83;;;24.40;99.90;;;;;;5053132;28;20170;-83
2022/07/18 06:50:10;;;;;;;7.75;2.80;;;24.50;99.90;;;;;;5052718;28;20195;-83
2022/07/18 06:52:38;;;;;;;3.70;1.60;;;24.60;99.90;;;;;;5052803;28;20168;-82
2022/07/18 06:55:04;;;;;;;14.30;2.08;;;24.70;99.90;;;;;;5035283;28;20289;-83
2022/07/18 06:57:30;;;;;;;5.53;2.13;;;25.00;99.70;;;;;;5055094;28;20163;-84
2022/07/18 06:59:56;;;;;;;6.85;2.03;;;25.30;99.50;;;;;;5057085;28;20191;-85
2022/07/18 07:02:21;;;;;;;2.55;1.55;;;25.40;99.20;;;;;;5056502;28;20203;-85
2022/07/18 07:04:47;;;;;;;10.00;2.05;;;25.40;98.90;;;;;;5056651;28;20241;-83
2022/07/18 07:07:12;;;;;;;1.95;1.60;;;25.40;98.90;;;;;;5057579;28;20182;-82
2022/07/18 07:09:38;;;;;;;5.82;1.95;;;25.80;98.60;;;;;;5057304;28;20781;-84
2022/07/18 07:12:04;;;;;;;5.55;1.70;;;26.30;98.10;;;;;;5057382;28;20171;-83
2022/07/18 07:14:29;;;;;;;2.33;1.85;;;26.50;97.90;;;;;;5056880;28;20246;-82
2022/07/18 07:16:55;;;;;;;3.65;1.70;;;27.10;97.60;;;;;;5056549;28;20221;-82
2022/07/18 07:19:21;;;;;;;8.50;1.90;;;27.60;96.20;;;;;;5039012;28;20528;-85
2022/07/18 07:21:47;;;;;;;2.28;1.55;;;28.60;96.10;;;;;;5056364;28;20201;-85
2022/07/18 07:24:12;;;;;;;2.17;1.35;;;29.20;94.10;;;;;;5056649;28;20159;-84
2022/07/18 07:26:38;;;;;;;7.30;1.80;;;30.30;93.00;;;;;;5056222;28;20580;-83
2022/07/18 07:29:03;;;;;;;5.65;2.00;;;30.90;92.10;;;;;;5056180;28;20672;-82
2022/07/18 07:31:29;;;;;;;5.43;1.40;;;31.30;91.00;;;;;;5056283;28;20589;-84
2022/07/18 07:33:55;;;;;;;8.90;1.70;;;31.50;90.20;;;;;;5056185;28;20171;-84
2022/07/18 07:36:21;;;;;;;7.45;1.67;;;32.40;89.10;;;;;;5056328;28;20296;-83
2022/07/18 07:38:47;;;;;;;2.70;1.40;;;31.80;89.20;;;;;;5056120;28;20163;-86
2022/07/18 07:41:15;;;;;;;10.25;1.35;;;32.40;88.40;;;;;;5038405;28;20279;-82
2022/07/18 07:43:41;;;;;;;13.85;1.73;;;32.80;86.20;;;;;;5038285;28;20171;-85
2022/07/18 07:46:07;;;;;;;7.00;2.10;;;33.10;85.90;;;;;;5059072;28;20167;-81
2022/07/18 07:48:33;;;;;;;3.97;1.52;;;32.50;87.70;;;;;;5052035;28;20193;-82
2022/07/18 07:50:58;;;;;;;8.20;1.55;;;32.20;85.80;;;;;;5078953;28;20167;-83
2022/07/18 07:53:24;;;;;;;9.18;2.13;;;32.40;85.90;;;;;;5069535;28;20186;-84
2022/07/18 07:55:49;;;;;;;7.45;1.80;;;32.60;86.70;;;;;;5057842;28;20520;-84
2022/07/18 07:58:15;;;;;;;6.15;1.77;;;31.80;85.60;;;;;;5063512;28;20226;-83
2022/07/18 08:00:41;;;;;;;3.78;1.45;;;31.20;87.60;;;;;;5042563;28;20707;-83
2022/07/18 08:03:07;;;;;;;3.95;1.63;;;31.00;87.60;;;;;;5056577;28;20175;-83
2022/07/18 08:05:43;;;;;;;3.45;1.45;;;30.60;87.60;;;;;;5055802;28;20643;-83
2022/07/18 08:08:10;;;;;;;10.80;1.42;;;30.00;89.40;;;;;;5045026;28;20171;-83
2022/07/18 08:10:41;;;;;;;4.50;2.15;;;30.30;88.90;;;;;;5058837;28;20659;-84
2022/07/18 08:13:08;;;;;;;11.02;1.77;;;30.00;89.40;;;;;;5048284;28;20163;-82
2022/07/18 08:15:44;;;;;;;12.23;2.22;;;30.10;90.00;;;;;;5055906;28;20182;-83
2022/07/18 08:18:10;;;;;;;6.95;2.03;;;29.80;90.50;;;;;;5045012;28;20175;-82
2022/07/18 08:20:35;;;;;;;4.20;2.15;;;29.40;91.60;;;;;;5039412;28;20197;-82
2022/07/18 08:23:16;;;;;;;9.88;1.95;;;29.40;90.60;;;;;;5041407;28;20175;-82
2022/07/18 08:25:47;;;;;;;9.10;2.00;;;29.40;90.70;;;;;;5069596;28;20179;-84
2022/07/18 08:28:13;;;;;;;3.17;1.80;;;29.50;90.30;;;;;;5052544;28;20192;-83
2022/07/18 08:30:41;;;;;;;3.63;1.23;;;29.60;92.00;;;;;;5045245;28;20189;-83
2022/07/18 08:33:07;;;;;;;2.35;1.45;;;29.50;90.80;;;;;;5060509;28;20171;-84
2022/07/18 08:35:34;;;;;;;4.05;1.42;;;29.30;91.80;;;;;;5058827;28;20189;-83
2022/07/18 08:38:02;;;;;;;4.18;1.90;;;29.40;91.10;;;;;;5043564;28;20174;-83
2022/07/18 08:40:28;;;;;;;2.92;1.67;;;29.60;90.30;;;;;;5044879;28;20183;-83
2022/07/18 08:42:56;;;;;;;7.15;1.60;;;29.50;90.10;;;;;;5040717;28;20270;-83
2022/07/18 08:45:24;;;;;;;2.15;1.50;;;29.60;90.50;;;;;;5072876;28;20159;-83
2022/07/18 08:48:12;;;;;;;4.43;1.83;;;29.80;90.40;;;;;;5056383;28;20163;-82
2022/07/18 08:50:38;;;;;;;2.67;1.52;;;29.80;91.20;;;;;;5069078;28;20190;-82
2022/07/18 08:53:04;;;;;;;5.75;1.60;;;29.90;90.50;;;;;;5056681;28;20182;-83
2022/07/18 08:55:30;;;;;;;3.28;1.80;;;29.90;90.70;;;;;;5036184;28;20163;-83
2022/07/18 08:57:56;;;;;;;14.43;1.60;;;29.90;88.90;;;;;;5056440;28;20193;-85
2022/07/18 09:00:22;;;;;;;3.47;1.73;;;30.10;91.40;;;;;;5054546;28;20273;-84
2022/07/18 09:03:00;;;;;;;3.03;1.20;;;30.10;89.30;;;;;;5054725;28;20163;-85
2022/07/18 09:05:26;;;;;;;4.13;1.45;;;30.20;90.00;;;;;;5055097;28;20687;-83
2022/07/18 09:07:51;;;;;;;10.00;1.50;;;29.90;88.90;;;;;;5036924;28;20179;-84
2022/07/18 09:10:17;;;;;;;6.40;1.30;;;29.80;90.90;;;;;;5054408;28;20266;-82
2022/07/18 09:12:57;;;;;;;3.63;1.30;;;29.90;89.40;;;;;;5054459;28;20166;-83
2022/07/18 09:15:22;;;;;;;3.63;1.30;;;30.20;88.80;;;;;;5036477;28;20163;-84
2022/07/18 09:17:50;;;;;;;2.22;1.40;;;30.20;90.00;;;;;;5036379;28;20170;-82
2022/07/18 09:20:16;;;;;;;7.93;1.50;;;30.30;88.90;;;;;;5053517;28;20720;-82
2022/07/18 09:22:48;;;;;;;2.65;1.25;;;30.30;88.60;;;;;;5068587;28;20197;-82
2022/07/18 09:25:24;;;;;;;3.53;1.20;;;30.40;90.00;;;;;;5040787;28;20517;-82
2022/07/18 09:27:52;;;;;;;4.50;1.20;;;30.50;88.50;;;;;;5045434;28;20162;-82
2022/07/18 09:30:20;;;;;;;6.90;1.10;;;30.60;88.70;;;;;;5037021;28;20182;-82
2022/07/18 09:33:05;;;;;;;5.32;1.20;;;30.60;89.30;;;;;;5036225;28;20179;-82
2022/07/18 09:35:36;;;;;;;1.45;1.27;;;30.70;88.60;;;;;;5036009;28;20654;-82
2022/07/18 09:38:11;;;;;;;6.25;1.05;;;30.80;88.00;;;;;;5053903;28;20167;-83
2022/07/18 09:40:39;;;;;;;14.55;1.50;;;30.90;90.40;;;;;;5035748;28;20678;-83
2022/07/18 09:43:07;;;;;;;4.25;1.20;;;30.90;87.90;;;;;;5053873;28;20581;-85
2022/07/18 09:45:47;;;;;;;5.82;1.33;;;31.10;87.70;;;;;;5053723;28;20165;-84
2022/07/18 09:48:19;;;;;;;9.07;1.38;;;31.00;87.30;;;;;;5054022;28;20174;-84
2022/07/18 09:50:59;;;;;;;3.38;1.20;;;31.20;88.00;;;;;;5053501;28;20187;-82
2022/07/18 09:53:42;;;;;;;2.88;1.00;;;31.10;87.70;;;;;;5035735;28;20178;-84
2022/07/18 09:56:10;;;;;;;10.25;1.17;;;30.90;86.30;;;;;;5053371;28;20194;-82
2022/07/18 09:58:50;;;;;;;1.55;0.98;;;30.90;87.60;;;;;;5035561;28;20533;-84
2022/07/18 10:01:17;;;;;;;5.30;1.33;;;31.00;87.60;;;;;;5053792;28;20225;-82
2022/07/18 10:03:42;;;;;;;1.63;1.13;;;31.10;87.20;;;;;;5035753;28;20163;-81
2022/07/18 10:06:08;;;;;;;1.20;1.00;;;31.50;85.50;;;;;;5036247;28;20181;-82
2022/07/18 10:08:35;;;;;;;9.70;1.08;;;31.50;84.00;;;;;;5035382;28;20198;-83
2022/07/18 10:11:03;;;;;;;4.60;0.98;;;31.50;84.00;;;;;;5035496;28;20213;-83
2022/07/18 10:13:31;;;;;;;5.97;1.55;;;31.50;85.00;;;;;;5053467;28;20170;-84
2022/07/18 10:15:57;;;;;;;11.55;1.10;;;31.60;83.50;;;;;;5054954;28;20174;-82
2022/07/18 10:18:26;;;;;;;0.90;0.75;;;31.80;84.60;;;;;;5067755;28;20230;-81
2022/07/18 10:21:14;;;;;;;1.35;0.80;;;31.80;81.10;;;;;;5058273;28;20203;-81
2022/07/18 10:23:46;;;;;;;6.10;2.30;;;31.90;81.90;;;;;;5073258;28;20173;-81
2022/07/18 10:26:19;;;;;;;2.80;1.00;;;31.90;80.00;;;;;;5061027;28;20627;-84
2022/07/18 10:28:56;;;;;;;2.17;1.20;;;31.70;83.40;;;;;;5053948;28;20181;-83
2022/07/18 10:31:28;;;;;;;1.30;1.00;;;31.70;81.00;;;;;;5052441;28;20234;-84
2022/07/18 10:34:09;;;;;;;7.05;1.15;;;31.70;83.60;;;;;;5035431;28;20586;-82
2022/07/18 10:36:40;;;;;;;0.63;0.60;;;31.90;80.80;;;;;;5053361;28;20627;-84
2022/07/18 10:39:13;;;;;;;2.70;1.10;;;31.80;80.20;;;;;;5053278;28;20177;-82
2022/07/18 10:41:39;;;;;;;1.42;1.05;;;31.80;82.60;;;;;;5035100;28;20579;-85
2022/07/18 10:44:23;;;;;;;1.13;0.80;;;32.00;77.40;;;;;;5035107;28;20173;-85
2022/07/18 10:47:05;;;;;;;1.33;0.80;;;31.90;77.90;;;;;;5052668;28;20170;-82
2022/07/18 10:49:46;;;;;;;1.15;0.90;;;31.80;77.80;;;;;;5034896;28;20182;-83
2022/07/18 10:52:33;;;;;;;1.48;0.70;;;31.90;78.30;;;;;;5052975;28;20255;-82
2022/07/18 10:55:05;;;;;;;7.38;1.48;;;32.10;76.60;;;;;;5035074;28;20171;-82
2022/07/18 10:57:39;;;;;;;1.67;0.90;;;32.20;76.50;;;;;;5034571;28;20170;-84
2022/07/18 11:00:10;;;;;;;4.28;0.88;;;32.30;79.90;;;;;;5052524;28;20186;-83
2022/07/18 11:02:38;;;;;;;1.80;1.40;;;32.30;75.20;;;;;;5052443;28;20202;-83
2022/07/18 11:05:24;;;;;;;1.92;1.20;;;32.20;76.00;;;;;;5053092;28;20170;-82
2022/07/18 11:07:59;;;;;;;1.63;1.05;;;32.20;77.40;;;;;;5042563;28;20190;-82
2022/07/18 11:10:54;;;;;;;1.60;1.42;;;32.10;76.10;;;;;;5035337;28;20263;-82
2022/07/18 11:15:58;;;;;;;2.30;1.02;;;32.30;77.20;;;;;;5053296;28;20642;-82
2022/07/18 11:18:25;;;;;;;1.63;0.80;;;32.40;76.10;;;;;;5035211;28;20248;-83
2022/07/18 11:20:51;;;;;;;1.90;0.80;;;32.30;73.30;;;;;;5036320;28;20218;-82
2022/07/18 11:23:22;;;;;;;1.08;0.75;;;32.30;74.50;;;;;;5037061;28;20234;-84
2022/07/18 11:25:56;;;;;;;3.78;1.00;;;32.30;75.60;;;;;;5053854;28;20169;-85
2022/07/18 11:28:23;;;;;;;1.20;1.10;;;32.40;74.30;;;;;;5052728;28;20162;-82
2022/07/18 11:31:09;;;;;;;2.13;0.80;;;32.40;73.20;;;;;;5052233;28;20281;-82
2022/07/18 11:33:37;;;;;;;1.38;1.10;;;32.30;73.60;;;;;;5054106;28;20632;-82
2022/07/18 11:36:07;;;;;;;1.05;0.90;;;32.30;77.30;;;;;;5055477;28;20588;-82
2022/07/18 11:38:34;;;;;;;1.73;1.00;;;32.30;73.60;;;;;;5054212;28;20198;-82
2022/07/18 11:41:02;;;;;;;1.40;0.93;;;32.40;75.30;;;;;;5038398;28;20207;-82
2022/07/18 11:43:28;;;;;;;7.85;0.90;;;32.30;74.00;;;;;;5058520;28;20179;-81
2022/07/18 11:46:11;;;;;;;1.77;1.00;;;32.50;73.10;;;;;;5042791;28;20256;-82
2022/07/18 11:48:38;;;;;;;1.45;0.90;;;32.50;74.00;;;;;;5044157;28;20179;-81
2022/07/18 11:51:13;;;;;;;2.67;1.10;;;32.50;74.70;;;;;;5065200;28;20201;-83
2022/07/18 11:53:51;;;;;;;5.18;1.13;;;32.50;75.50;;;;;;5055955;28;20517;-82
2022/07/18 11:56:19;;;;;;;1.50;1.08;;;32.60;75.50;;;;;;5038244;28;20174;-83
2022/07/18 11:58:46;;;;;;;5.93;1.05;;;32.70;75.70;;;;;;5037899;28;20167;-85
2022/07/18 12:01:12;;;;;;;1.33;0.90;;;32.40;76.00;;;;;;5055503;28;20530;-84
2022/07/18 12:03:44;;;;;;;14.98;1.15;;;32.40;75.10;;;;;;5055539;28;20170;-84
2022/07/18 12:06:30;;;;;;;4.00;1.00;;;32.50;75.00;;;;;;5055385;28;20193;-83
2022/07/18 12:09:00;;;;;;;1.65;1.02;;;32.50;74.00;;;;;;5055136;28;20183;-82
2022/07/18 12:11:28;;;;;;;1.15;0.90;;;32.80;74.40;;;;;;5037748;28;20662;-83
2022/07/18 12:13:59;;;;;;;2.15;1.02;;;32.80;72.80;;;;;;5055242;28;20174;-82
2022/07/18 12:16:39;;;;;;;4.57;1.00;;;32.80;73.80;;;;;;5037643;28;20198;-82
2022/07/18 12:19:12;;;;;;;3.85;1.67;;;32.80;71.10;;;;;;5037823;28;20171;-83
2022/07/18 12:21:44;;;;;;;3.28;1.20;;;32.80;72.20;;;;;;5055679;28;20224;-83
2022/07/18 12:24:46;;;;;;;1.48;1.17;;;32.90;73.50;;;;;;5055687;28;20665;-86
2022/07/18 12:27:40;;;;;;;0.88;0.85;;;32.90;70.60;;;;;;5055310;28;20182;-82
2022/07/18 12:30:12;;;;;;;7.28;1.08;;;32.90;70.90;;;;;;5052370;28;20612;-82
2022/07/18 12:32:45;;;;;;;1.60;1.15;;;32.80;69.80;;;;;;5037657;28;20179;-83
2022/07/18 12:35:32;;;;;;;4.90;1.08;;;32.90;73.30;;;;;;5046689;28;20221;-84
2022/07/18 12:38:24;;;;;;;4.15;1.00;;;32.90;71.20;;;;;;5065964;28;20234;-86
2022/07/18 12:41:02;;;;;;;1.85;0.98;;;33.00;72.40;;;;;;5057881;28;20297;-83
2022/07/18 12:43:38;;;;;;;1.83;1.08;;;32.90;71.90;;;;;;5043241;28;20197;-83
2022/07/18 12:46:10;;;;;;;2.45;0.98;;;33.00;71.80;;;;;;5064768;28;20186;-83
2022/07/18 12:48:44;;;;;;;2.17;0.70;;;33.20;71.10;;;;;;5059059;28;20201;-83
2022/07/18 12:51:14;;;;;;;1.63;0.80;;;33.20;70.20;;;;;;5079502;28;20167;-81
2022/07/18 12:53:57;;;;;;;3.17;0.93;;;33.00;69.40;;;;;;5038907;28;20174;-83
2022/07/18 12:56:23;;;;;;;7.65;0.93;;;32.90;69.90;;;;;;5071458;28;20225;-83
2022/07/18 12:58:49;;;;;;;5.82;1.25;;;33.10;70.50;;;;;;5048560;28;20179;-83